createdAt,value
2022-09-14T00:00:44.256Z,99147.03
2022-09-14T00:01:50.703Z,99147.41
2022-09-14T00:02:53.382Z,99150.56
2022-09-14T00:04:06.780Z,99146.63
2022-09-14T00:05:10.701Z,99140.31
2022-09-14T00:06:16.099Z,99147.38
2022-09-14T00:07:18.626Z,99146.22
2022-09-14T00:08:21.004Z,99154.09
2022-09-14T00:09:28.828Z,99158.88
2022-09-14T00:10:35.374Z,99146.28
2022-09-14T00:13:01.549Z,99146.13
2022-09-14T00:14:10.401Z,99148.53
2022-09-14T00:15:21.961Z,99135.09
2022-09-14T00:16:32.632Z,99135.88
2022-09-14T00:17:37.580Z,99135.06
2022-09-14T00:18:41.129Z,99132.69
2022-09-14T00:19:43.814Z,99136.63
2022-09-14T00:20:46.499Z,99135.09
2022-09-14T00:21:59.827Z,99131.91
2022-09-14T00:23:03.865Z,99128.34
2022-09-14T00:24:07.949Z,99128.75
2022-09-14T00:25:13.439Z,99129.56
2022-09-14T00:26:20.784Z,99133.53
2022-09-14T00:27:25.271Z,99133.16
2022-09-14T00:28:29.950Z,99127.97
2022-09-14T00:29:39.535Z,99133.09
2022-09-14T00:30:44.279Z,99125.25
2022-09-14T00:31:58.904Z,99128.00
2022-09-14T00:33:02.105Z,99131.91
2022-09-14T00:34:08.791Z,99125.63
2022-09-14T00:35:11.875Z,99133.03
2022-09-14T00:36:21.387Z,99135.78
2022-09-14T00:37:27.700Z,99126.34
2022-09-14T00:38:29.928Z,99127.16
2022-09-14T00:39:46.351Z,99131.09
2022-09-14T00:41:02.438Z,99114.47
2022-09-14T00:42:07.100Z,99126.31
2022-09-14T00:43:15.287Z,99117.63
2022-09-14T00:44:17.988Z,99134.28
2022-09-14T00:45:26.088Z,99127.13
2022-09-14T00:46:33.164Z,99132.69
2022-09-14T00:47:36.006Z,99127.56
2022-09-14T00:48:39.605Z,99123.16
2022-09-14T00:49:43.815Z,99112.91
2022-09-14T00:50:48.037Z,99120.72
2022-09-14T00:52:13.730Z,99120.75
2022-09-14T00:53:19.065Z,99116.81
2022-09-14T00:54:29.638Z,99109.75
2022-09-14T00:55:34.541Z,99118.44
2022-09-14T00:56:40.824Z,99112.44
2022-09-14T00:57:51.858Z,99108.94
2022-09-14T00:58:57.619Z,99121.50
2022-09-14T01:00:02.961Z,99109.66
2022-09-14T01:01:09.010Z,99106.84
2022-09-14T01:02:18.445Z,99103.34
2022-09-14T01:03:26.948Z,99097.78
2022-09-14T01:04:32.227Z,99098.59
2022-09-14T01:06:01.563Z,99109.66
2022-09-14T01:07:26.478Z,99093.84
2022-09-14T01:09:05.640Z,99098.59
2022-09-14T01:10:32.806Z,99100.94
2022-09-14T01:12:16.713Z,99104.94
2022-09-14T01:13:40.826Z,99093.38
2022-09-14T01:14:55.575Z,99094.53
2022-09-14T01:16:31.073Z,99095.28
2022-09-14T01:18:09.109Z,99104.97
2022-09-14T01:19:34.438Z,99091.84
2022-09-14T01:20:48.187Z,99089.91
2022-09-14T01:21:52.774Z,99096.66
2022-09-14T01:23:13.014Z,99087.16
2022-09-14T01:24:36.090Z,99085.94
2022-09-14T01:25:58.827Z,99085.13
2022-09-14T01:27:31.287Z,99088.28
2022-09-14T01:29:05.008Z,99082.72
2022-09-14T01:30:16.664Z,99092.19
2022-09-14T01:31:54.485Z,99086.69
2022-09-14T01:33:13.378Z,99092.16
2022-09-14T01:34:33.785Z,99087.44
2022-09-14T01:35:44.074Z,99085.38
2022-09-14T01:36:53.641Z,99087.34
2022-09-14T01:37:57.033Z,99089.03
2022-09-14T01:39:02.263Z,99089.38
2022-09-14T01:40:30.032Z,99082.22
2022-09-14T01:41:35.493Z,99081.50
2022-09-14T01:42:44.176Z,99076.34
2022-09-14T01:43:58.226Z,99084.19
2022-09-14T01:45:03.555Z,99086.63
2022-09-14T01:46:35.531Z,99079.84
2022-09-14T01:47:46.709Z,99071.53
2022-09-14T01:49:16.716Z,99070.38
2022-09-14T01:50:25.447Z,99067.22
2022-09-14T01:51:50.413Z,99079.03
2022-09-14T01:53:07.584Z,99076.34
2022-09-14T01:54:34.943Z,99073.19
2022-09-14T01:56:00.756Z,99066.00
2022-09-14T01:57:24.769Z,99071.66
2022-09-14T01:59:07.313Z,99077.91
2022-09-14T02:00:29.078Z,99055.75
2022-09-14T02:01:59.337Z,99068.41
2022-09-14T02:03:14.729Z,99080.38
2022-09-14T02:04:45.891Z,99071.25
2022-09-14T02:05:58.673Z,99057.41
2022-09-14T02:07:01.603Z,99059.75
2022-09-14T02:08:06.801Z,99064.88
2022-09-14T02:09:14.769Z,99053.38
2022-09-14T02:10:18.928Z,99061.72
2022-09-14T02:11:28.484Z,99051.31
2022-09-14T02:12:46.849Z,99056.13
2022-09-14T02:13:50.744Z,99047.81
2022-09-14T02:16:12.835Z,99050.13
2022-09-14T02:17:24.361Z,99052.53
2022-09-14T02:18:29.325Z,99057.28
2022-09-14T02:19:41.794Z,99050.16
2022-09-14T02:21:16.440Z,99045.78
2022-09-14T02:22:20.573Z,99055.28
2022-09-14T02:23:23.639Z,99052.94
2022-09-14T02:24:26.268Z,99047.44
2022-09-14T02:25:29.276Z,99047.81
2022-09-14T02:26:32.516Z,99051.31
2022-09-14T02:27:35.871Z,99054.09
2022-09-14T02:28:42.474Z,99054.19
2022-09-14T02:29:48.497Z,99059.34
2022-09-14T02:31:02.944Z,99052.59
2022-09-14T02:32:24.872Z,99051.44
2022-09-14T02:34:05.740Z,99042.66
2022-09-14T02:35:18.869Z,99049.31
2022-09-14T02:36:51.497Z,99049.31
2022-09-14T02:38:18.239Z,99049.31
2022-09-14T02:39:36.905Z,99049.38
2022-09-14T02:40:54.792Z,99052.53
2022-09-14T02:42:09.559Z,99049.38
2022-09-14T02:43:43.741Z,99046.97
2022-09-14T02:44:58.605Z,99042.28
2022-09-14T02:46:37.846Z,99045.47
2022-09-14T02:47:57.428Z,99038.28
2022-09-14T02:49:40.742Z,99051.03
2022-09-14T02:50:42.780Z,99038.78
2022-09-14T02:52:05.157Z,99047.88
2022-09-14T02:53:21.826Z,99050.22
2022-09-14T02:54:35.897Z,99037.59
2022-09-14T02:55:45.743Z,99039.94
2022-09-14T02:56:49.741Z,99043.09
2022-09-14T02:58:09.685Z,99049.38
2022-09-14T02:59:12.190Z,99037.56
2022-09-14T03:00:16.231Z,99038.28
2022-09-14T03:01:21.316Z,99041.47
2022-09-14T03:02:23.941Z,99033.94
2022-09-14T03:03:26.705Z,99027.16
2022-09-14T03:04:31.930Z,99037.13
2022-09-14T03:05:35.011Z,99037.38
2022-09-14T03:06:37.881Z,99031.41
2022-09-14T03:07:44.293Z,99035.47
2022-09-14T03:08:46.631Z,99032.66
2022-09-14T03:09:49.870Z,99027.19
2022-09-14T03:10:53.463Z,99026.38
2022-09-14T03:11:57.219Z,99029.53
2022-09-14T03:13:02.155Z,99024.03
2022-09-14T03:14:04.372Z,99028.78
2022-09-14T03:15:11.140Z,99025.19
2022-09-14T03:16:21.580Z,99023.16
2022-09-14T03:17:25.321Z,99017.56
2022-09-14T03:18:30.396Z,99023.22
2022-09-14T03:19:32.483Z,99014.88
2022-09-14T03:20:35.416Z,99022.03
2022-09-14T03:21:39.219Z,99026.38
2022-09-14T03:22:41.436Z,99015.34
2022-09-14T03:23:46.726Z,99026.75
2022-09-14T03:24:52.007Z,99011.69
2022-09-14T03:25:54.488Z,99013.69
2022-09-14T03:26:57.011Z,99020.38
2022-09-14T03:28:03.134Z,99019.56
2022-09-14T03:29:07.964Z,99019.19
2022-09-14T03:30:10.742Z,99022.41
2022-09-14T03:31:13.816Z,99012.09
2022-09-14T03:32:16.069Z,99017.72
2022-09-14T03:33:19.663Z,99009.75
2022-09-14T03:34:22.698Z,99010.56
2022-09-14T03:35:28.954Z,99007.38
2022-09-14T03:36:32.282Z,99008.88
2022-09-14T03:37:38.429Z,99012.41
2022-09-14T03:38:47.405Z,99013.22
2022-09-14T03:39:50.275Z,99007.28
2022-09-14T03:40:54.284Z,99010.44
2022-09-14T03:41:57.764Z,99017.50
2022-09-14T03:43:00.865Z,99004.94
2022-09-14T03:44:03.138Z,99014.00
2022-09-14T03:45:07.338Z,99018.38
2022-09-14T03:46:14.655Z,99007.38
2022-09-14T03:47:18.709Z,99012.81
2022-09-14T03:48:21.181Z,99007.28
2022-09-14T03:49:23.866Z,98999.78
2022-09-14T03:50:26.114Z,99007.28
2022-09-14T03:51:28.516Z,99003.69
2022-09-14T03:52:30.920Z,99012.81
2022-09-14T03:53:34.172Z,99011.19
2022-09-14T03:54:42.944Z,99013.16
2022-09-14T03:55:45.882Z,99004.84
2022-09-14T03:56:48.919Z,99007.19
2022-09-14T03:57:55.118Z,99006.44
2022-09-14T03:58:58.190Z,99004.00
2022-09-14T04:00:00.353Z,99010.72
2022-09-14T04:01:07.796Z,99006.34
2022-09-14T04:02:09.949Z,99006.25
2022-09-14T04:03:12.295Z,99000.38
2022-09-14T04:04:16.220Z,99005.13
2022-09-14T04:05:21.855Z,99005.91
2022-09-14T04:06:26.613Z,99001.63
2022-09-14T04:07:30.775Z,99002.03
2022-09-14T04:08:35.370Z,99010.31
2022-09-14T04:09:38.096Z,98999.22
2022-09-14T04:10:42.057Z,99007.06
2022-09-14T04:11:48.656Z,98994.41
2022-09-14T04:12:50.946Z,99007.91
2022-09-14T04:13:54.652Z,99002.41
2022-09-14T04:14:57.198Z,98995.97
2022-09-14T04:16:01.652Z,98990.47
2022-09-14T04:17:05.820Z,98994.78
2022-09-14T04:18:08.486Z,99000.69
2022-09-14T04:19:12.795Z,98996.81
2022-09-14T04:20:15.139Z,98996.78
2022-09-14T04:21:20.307Z,98998.28
2022-09-14T04:22:22.875Z,98991.94
2022-09-14T04:23:25.769Z,98987.94
2022-09-14T04:24:30.659Z,98991.09
2022-09-14T04:25:33.774Z,98988.66
2022-09-14T04:26:41.199Z,98988.22
2022-09-14T04:27:58.975Z,98987.34
2022-09-14T04:29:10.996Z,98997.25
2022-09-14T04:30:18.575Z,99000.91
2022-09-14T04:31:21.331Z,98992.00
2022-09-14T04:32:25.561Z,99002.78
2022-09-14T04:33:31.445Z,98999.66
2022-09-14T04:34:33.657Z,99003.50
2022-09-14T04:35:38.267Z,99000.38
2022-09-14T04:36:40.624Z,98999.53
2022-09-14T04:37:43.969Z,98997.69
2022-09-14T04:38:47.050Z,98992.44
2022-09-14T04:39:50.728Z,98996.81
2022-09-14T04:40:53.146Z,98995.19
2022-09-14T04:41:55.919Z,98987.34
2022-09-14T04:42:57.985Z,98997.19
2022-09-14T04:44:00.816Z,98999.16
2022-09-14T04:45:02.971Z,98990.03
2022-09-14T04:46:11.540Z,98991.59
2022-09-14T04:47:13.883Z,98984.47
2022-09-14T04:48:16.494Z,98993.88
2022-09-14T04:49:21.953Z,98987.25
2022-09-14T04:50:24.301Z,98999.00
2022-09-14T04:51:31.682Z,98997.03
2022-09-14T04:52:35.717Z,98993.88
2022-09-14T04:53:39.308Z,98999.00
2022-09-14T04:54:41.800Z,98996.25
2022-09-14T04:55:44.057Z,98993.47
2022-09-14T04:56:50.058Z,98997.09
2022-09-14T04:57:56.399Z,98997.03
2022-09-14T04:59:06.561Z,99000.25
2022-09-14T05:00:09.582Z,98999.06
2022-09-14T05:01:18.046Z,98993.88
2022-09-14T05:02:20.362Z,98997.75
2022-09-14T05:03:22.894Z,98995.47
2022-09-14T05:04:25.767Z,98999.50
2022-09-14T05:05:44.301Z,99001.72
2022-09-14T05:08:07.782Z,99000.97
2022-09-14T05:09:15.384Z,99010.53
2022-09-14T05:10:17.620Z,99003.38
2022-09-14T05:11:22.423Z,99006.56
2022-09-14T05:12:24.605Z,98999.44
2022-09-14T05:13:27.038Z,99004.03
2022-09-14T05:14:30.424Z,99004.88
2022-09-14T05:15:32.631Z,99007.44
2022-09-14T05:16:39.677Z,98999.81
2022-09-14T05:17:41.727Z,99001.72
2022-09-14T05:18:44.760Z,99005.59
2022-09-14T05:19:46.767Z,99008.06
2022-09-14T05:20:50.454Z,99004.13
2022-09-14T05:21:54.629Z,99002.94
2022-09-14T05:22:56.654Z,99006.47
2022-09-14T05:24:02.166Z,99010.44
2022-09-14T05:25:04.496Z,99013.56
2022-09-14T05:26:07.251Z,99007.94
2022-09-14T05:27:09.386Z,99013.88
2022-09-14T05:28:13.540Z,99009.56
2022-09-14T05:29:18.954Z,99010.66
2022-09-14T05:30:21.335Z,99011.81
2022-09-14T05:31:28.234Z,99006.50
2022-09-14T05:32:30.664Z,99011.19
2022-09-14T05:33:34.171Z,99003.25
2022-09-14T05:36:01.621Z,99005.13
2022-09-14T05:37:03.938Z,98999.56
2022-09-14T05:38:09.030Z,98992.81
2022-09-14T05:39:11.509Z,99001.41
2022-09-14T05:40:13.891Z,99000.53
2022-09-14T05:41:16.937Z,99002.19
2022-09-14T05:42:19.233Z,98995.09
2022-09-14T05:43:22.897Z,99000.19
2022-09-14T05:44:25.433Z,98991.88
2022-09-14T05:45:27.671Z,98994.28
2022-09-14T05:46:30.007Z,99003.31
2022-09-14T05:47:35.906Z,99004.25
2022-09-14T05:48:54.771Z,99001.50
2022-09-14T05:49:56.903Z,98999.09
2022-09-14T05:51:01.297Z,98991.94
2022-09-14T05:52:03.871Z,98993.47
2022-09-14T05:53:06.598Z,98992.59
2022-09-14T05:54:12.407Z,98992.72
2022-09-14T05:55:14.980Z,98991.13
2022-09-14T05:56:18.316Z,98995.09
2022-09-14T05:57:20.812Z,98999.84
2022-09-14T05:58:23.574Z,98995.09
2022-09-14T05:59:25.777Z,98997.13
2022-09-14T06:00:28.766Z,98986.97
2022-09-14T06:01:34.968Z,98985.84
2022-09-14T06:02:37.941Z,98983.19
2022-09-14T06:03:44.396Z,98990.53
2022-09-14T06:04:46.925Z,98991.72
2022-09-14T06:05:56.252Z,98985.09
2022-09-14T06:07:17.865Z,98985.53
2022-09-14T06:08:21.876Z,98985.34
2022-09-14T06:09:32.944Z,98982.22
2022-09-14T06:10:37.351Z,98983.06
2022-09-14T06:11:44.460Z,98980.63
2022-09-14T06:12:51.152Z,98986.56
2022-09-14T06:13:59.732Z,98981.81
2022-09-14T06:15:03.846Z,98987.22
2022-09-14T06:16:14.515Z,98981.31
2022-09-14T06:17:17.470Z,98987.22
2022-09-14T06:18:22.512Z,98988.50
2022-09-14T06:19:24.929Z,98982.94
2022-09-14T06:20:30.151Z,98990.66
2022-09-14T06:21:35.266Z,98987.53
2022-09-14T06:22:44.555Z,98988.28
2022-09-14T06:23:48.156Z,98983.91
2022-09-14T06:24:50.409Z,98978.72
2022-09-14T06:26:00.126Z,98974.75
2022-09-14T06:27:09.343Z,98971.91
2022-09-14T06:28:11.519Z,98974.50
2022-09-14T06:29:16.465Z,98979.19
2022-09-14T06:30:19.412Z,98975.00
2022-09-14T06:31:23.191Z,98976.19
2022-09-14T06:32:25.437Z,98973.06
2022-09-14T06:33:28.833Z,98968.16
2022-09-14T06:34:30.895Z,98974.56
2022-09-14T06:35:34.780Z,98969.66
2022-09-14T06:36:37.046Z,98971.47
2022-09-14T06:37:39.581Z,98968.50
2022-09-14T06:38:42.923Z,98975.94
2022-09-14T06:39:46.984Z,98971.22
2022-09-14T06:40:59.788Z,98967.25
2022-09-14T06:42:03.604Z,98975.09
2022-09-14T06:43:06.521Z,98968.44
2022-09-14T06:44:09.309Z,98975.78
2022-09-14T06:45:11.496Z,98970.22
2022-09-14T06:46:23.832Z,98961.50
2022-09-14T06:47:25.955Z,98968.75
2022-09-14T06:48:36.575Z,98965.91
2022-09-14T06:49:39.828Z,98966.47
2022-09-14T06:50:41.843Z,98968.69
2022-09-14T06:51:47.428Z,98976.47
2022-09-14T06:52:49.460Z,98962.13
2022-09-14T06:53:54.017Z,98970.09
2022-09-14T06:55:18.571Z,98969.31
2022-09-14T06:56:24.087Z,98963.91
2022-09-14T06:57:27.880Z,98963.91
2022-09-14T06:58:34.617Z,98965.53
2022-09-14T06:59:39.105Z,98968.31
2022-09-14T07:00:41.326Z,98966.38
2022-09-14T07:01:47.188Z,98963.13
2022-09-14T07:02:54.913Z,98968.75
2022-09-14T07:04:01.084Z,98968.69
2022-09-14T07:05:06.259Z,98965.69
2022-09-14T07:06:16.495Z,98973.50
2022-09-14T07:07:18.667Z,98964.84
2022-09-14T07:08:22.792Z,98965.91
2022-09-14T07:09:25.792Z,98959.84
2022-09-14T07:10:29.107Z,98964.22
2022-09-14T07:11:32.508Z,98969.53
2022-09-14T07:12:34.689Z,98969.16
2022-09-14T07:13:37.377Z,98964.97
2022-09-14T07:14:39.782Z,98969.06
2022-09-14T07:15:49.866Z,98966.38
2022-09-14T07:16:51.979Z,98968.94
2022-09-14T07:17:54.277Z,98969.72
2022-09-14T07:18:57.969Z,98970.28
2022-09-14T07:20:02.190Z,98970.94
2022-09-14T07:21:16.084Z,98971.16
2022-09-14T07:22:19.424Z,98970.72
2022-09-14T07:23:24.433Z,98969.44
2022-09-14T07:24:30.241Z,98966.78
2022-09-14T07:25:40.528Z,98974.13
2022-09-14T07:26:43.511Z,98975.41
2022-09-14T07:27:45.518Z,98972.94
2022-09-14T07:28:53.293Z,98959.94
2022-09-14T07:29:56.089Z,98964.22
2022-09-14T07:30:59.184Z,98960.97
2022-09-14T07:32:01.703Z,98966.03
2022-09-14T07:33:08.299Z,98966.50
2022-09-14T07:34:11.379Z,98954.19
2022-09-14T07:35:13.603Z,98953.00
2022-09-14T07:36:18.486Z,98958.47
2022-09-14T07:37:23.528Z,98962.06
2022-09-14T07:38:48.194Z,98960.69
2022-09-14T07:39:47.974Z,98960.81
2022-09-14T07:40:50.274Z,98963.47
2022-09-14T07:41:52.427Z,98964.22
2022-09-14T07:42:57.823Z,98955.94
2022-09-14T07:44:01.803Z,98953.09
2022-09-14T07:45:06.823Z,98959.00
2022-09-14T07:46:10.668Z,98961.06
2022-09-14T07:47:12.686Z,98961.00
2022-09-14T07:48:14.698Z,98954.31
2022-09-14T07:49:18.275Z,98953.28
2022-09-14T07:50:21.751Z,98954.09
2022-09-14T07:51:25.348Z,98953.28
2022-09-14T07:52:27.439Z,98952.53
2022-09-14T07:53:30.220Z,98952.38
2022-09-14T07:54:35.739Z,98947.59
2022-09-14T07:55:45.492Z,98949.16
2022-09-14T07:56:49.471Z,98958.56
2022-09-14T07:57:56.635Z,98948.31
2022-09-14T07:59:17.646Z,98952.72
2022-09-14T08:00:23.442Z,98952.84
2022-09-14T08:01:26.853Z,98952.31
2022-09-14T08:02:30.004Z,98949.94
2022-09-14T08:03:33.308Z,98946.38
2022-09-14T08:04:36.281Z,98955.34
2022-09-14T08:05:38.500Z,98940.47
2022-09-14T08:06:40.929Z,98943.94
2022-09-14T08:07:43.323Z,98953.00
2022-09-14T08:08:48.683Z,98950.59
2022-09-14T08:09:52.071Z,98947.03
2022-09-14T08:10:54.043Z,98949.38
2022-09-14T08:11:56.902Z,98943.97
2022-09-14T08:12:59.002Z,98944.69
2022-09-14T08:14:14.265Z,98941.75
2022-09-14T08:15:16.341Z,98946.09
2022-09-14T08:16:19.717Z,98933.28
2022-09-14T08:17:24.582Z,98943.97
2022-09-14T08:18:27.293Z,98939.56
2022-09-14T08:19:34.382Z,98942.47
2022-09-14T08:20:36.640Z,98942.81
2022-09-14T08:21:46.507Z,98941.91
2022-09-14T08:22:50.750Z,98937.03
2022-09-14T08:23:52.851Z,98936.34
2022-09-14T08:24:55.805Z,98942.41
2022-09-14T08:26:05.872Z,98937.13
2022-09-14T08:27:12.234Z,98940.47
2022-09-14T08:28:14.389Z,98934.19
2022-09-14T08:29:19.693Z,98942.59
2022-09-14T08:30:21.913Z,98936.28
2022-09-14T08:31:26.149Z,98939.63
2022-09-14T08:32:28.305Z,98932.50
2022-09-14T08:33:31.987Z,98935.78
2022-09-14T08:34:36.501Z,98929.44
2022-09-14T08:35:57.396Z,98935.84
2022-09-14T08:37:00.517Z,98926.06
2022-09-14T08:38:03.192Z,98926.25
2022-09-14T08:39:09.584Z,98925.59
2022-09-14T08:40:13.738Z,98930.41
2022-09-14T08:41:34.602Z,98926.72
2022-09-14T08:42:39.386Z,98920.59
2022-09-14T08:43:41.970Z,98925.00
2022-09-14T08:44:55.077Z,98929.47
2022-09-14T08:46:03.786Z,98931.03
2022-09-14T08:47:16.934Z,98925.84
2022-09-14T08:48:30.189Z,98925.31
2022-09-14T08:49:44.017Z,98931.94
2022-09-14T08:50:46.249Z,98921.34
2022-09-14T08:51:49.219Z,98931.03
2022-09-14T08:52:53.534Z,98925.63
2022-09-14T08:53:57.850Z,98934.19
2022-09-14T08:55:01.655Z,98922.19
2022-09-14T08:56:35.553Z,98921.94
2022-09-14T08:57:44.783Z,98932.84
2022-09-14T08:58:57.502Z,98927.34
2022-09-14T09:00:32.061Z,98928.31
2022-09-14T09:01:47.381Z,98923.31
2022-09-14T09:03:18.338Z,98922.88
2022-09-14T09:04:37.673Z,98924.38
2022-09-14T09:05:39.588Z,98918.81
2022-09-14T09:06:52.624Z,98919.47
2022-09-14T09:08:02.687Z,98921.41
2022-09-14T09:09:18.272Z,98918.34
2022-09-14T09:10:21.439Z,98930.66
2022-09-14T09:11:28.139Z,98916.84
2022-09-14T09:12:42.513Z,98920.53
2022-09-14T09:13:47.054Z,98913.91
2022-09-14T09:14:59.475Z,98916.31
2022-09-14T09:16:04.889Z,98918.69
2022-09-14T09:17:25.970Z,98917.75
2022-09-14T09:18:44.755Z,98928.63
2022-09-14T09:20:06.547Z,98918.81
2022-09-14T09:21:17.371Z,98922.09
2022-09-14T09:22:22.828Z,98925.94
2022-09-14T09:23:29.392Z,98924.38
2022-09-14T09:24:40.799Z,98929.00
2022-09-14T09:26:04.884Z,98927.44
2022-09-14T09:27:11.812Z,98917.53
2022-09-14T09:28:17.032Z,98915.91
2022-09-14T09:29:19.476Z,98924.53
2022-09-14T09:30:41.530Z,98916.69
2022-09-14T09:31:52.561Z,98922.41
2022-09-14T09:33:24.213Z,98930.31
2022-09-14T09:34:43.719Z,98913.34
2022-09-14T09:35:55.948Z,98914.66
2022-09-14T09:37:02.746Z,98923.09
2022-09-14T09:38:14.073Z,98916.81
2022-09-14T09:39:17.232Z,98917.09
2022-09-14T09:40:23.496Z,98918.28
2022-09-14T09:41:29.964Z,98916.91
2022-09-14T09:42:33.164Z,98919.09
2022-09-14T09:43:48.990Z,98909.34
2022-09-14T09:45:04.102Z,98914.75
2022-09-14T09:46:08.112Z,98911.28
2022-09-14T09:47:11.508Z,98916.31
2022-09-14T09:48:15.005Z,98909.19
2022-09-14T09:49:32.467Z,98910.75
2022-09-14T09:50:36.130Z,98909.25
2022-09-14T09:51:39.391Z,98907.59
2022-09-14T09:52:53.119Z,98910.75
2022-09-14T09:54:18.761Z,98906.41
2022-09-14T09:55:23.365Z,98910.59
2022-09-14T09:56:56.733Z,98900.44
2022-09-14T09:58:54.083Z,98910.75
2022-09-14T10:00:20.214Z,98902.00
2022-09-14T10:01:35.997Z,98904.88
2022-09-14T10:02:38.582Z,98905.56
2022-09-14T10:03:41.885Z,98902.28
2022-09-14T10:04:58.937Z,98907.22
2022-09-14T10:06:28.344Z,98908.84
2022-09-14T10:07:33.793Z,98910.59
2022-09-14T10:08:44.950Z,98914.22
2022-09-14T10:09:57.667Z,98914.59
2022-09-14T10:11:00.086Z,98913.69
2022-09-14T10:12:04.999Z,98906.84
2022-09-14T10:13:24.268Z,98914.50
2022-09-14T10:14:32.423Z,98912.09
2022-09-14T10:15:37.155Z,98913.13
2022-09-14T10:16:43.734Z,98924.34
2022-09-14T10:18:17.377Z,98915.63
2022-09-14T10:19:26.213Z,98913.91
2022-09-14T10:20:28.772Z,98919.31
2022-09-14T10:21:31.587Z,98910.97
2022-09-14T10:22:42.900Z,98911.88
2022-09-14T10:23:45.283Z,98908.78
2022-09-14T10:24:55.275Z,98915.81
2022-09-14T10:26:23.634Z,98907.66
2022-09-14T10:27:48.809Z,98908.84
2022-09-14T10:28:52.385Z,98903.97
2022-09-14T10:29:56.273Z,98908.72
2022-09-14T10:31:23.932Z,98913.03
2022-09-14T10:32:28.397Z,98908.78
2022-09-14T10:33:31.101Z,98919.03
2022-09-14T10:34:34.213Z,98908.72
2022-09-14T10:35:46.479Z,98905.88
2022-09-14T10:36:57.452Z,98910.25
2022-09-14T10:38:34.767Z,98907.84
2022-09-14T10:39:46.344Z,98905.13
2022-09-14T10:40:58.354Z,98916.19
2022-09-14T10:42:33.296Z,98919.84
2022-09-14T10:43:55.537Z,98908.97
2022-09-14T10:45:15.693Z,98914.63
2022-09-14T10:46:22.144Z,98918.53
2022-09-14T10:48:02.684Z,98921.59
2022-09-14T10:49:40.581Z,98914.56
2022-09-14T10:51:20.443Z,98913.94
2022-09-14T10:52:26.527Z,98914.66
2022-09-14T10:53:45.267Z,98914.97
2022-09-14T10:54:50.370Z,98912.34
2022-09-14T10:56:02.906Z,98905.03
2022-09-14T10:57:06.431Z,98901.44
2022-09-14T10:58:10.779Z,98906.91
2022-09-14T10:59:56.857Z,98903.69
2022-09-14T11:01:01.460Z,98906.53
2022-09-14T11:02:15.561Z,98910.28
2022-09-14T11:03:50.914Z,98902.28
2022-09-14T11:05:01.927Z,98905.75
2022-09-14T11:06:35.555Z,98900.63
2022-09-14T11:07:55.730Z,98905.06
2022-09-14T11:09:18.213Z,98907.66
2022-09-14T11:10:22.959Z,98908.72
2022-09-14T11:11:33.089Z,98914.09
2022-09-14T11:12:56.721Z,98909.41
2022-09-14T11:14:17.298Z,98920.56
2022-09-14T11:15:25.288Z,98904.88
2022-09-14T11:16:42.909Z,98911.00
2022-09-14T11:17:47.641Z,98908.88
2022-09-14T11:18:58.539Z,98907.69
2022-09-14T11:20:26.280Z,98905.84
2022-09-14T11:21:36.079Z,98908.53
2022-09-14T11:23:01.215Z,98904.72
2022-09-14T11:24:19.099Z,98908.19
2022-09-14T11:25:50.273Z,98906.59
2022-09-14T11:27:15.861Z,98906.78
2022-09-14T11:28:22.503Z,98908.88
2022-09-14T11:29:35.143Z,98904.88
2022-09-14T11:30:46.674Z,98904.25
2022-09-14T11:32:19.927Z,98901.41
2022-09-14T11:33:31.238Z,98895.91
2022-09-14T11:34:39.218Z,98893.63
2022-09-14T11:35:50.161Z,98893.53
2022-09-14T11:37:18.090Z,98892.50
2022-09-14T11:38:28.684Z,98889.19
2022-09-14T11:39:43.780Z,98900.59
2022-09-14T11:41:14.078Z,98893.34
2022-09-14T11:42:26.546Z,98893.25
2022-09-14T11:43:38.564Z,98898.63
2022-09-14T11:44:50.875Z,98894.56
2022-09-14T11:46:06.349Z,98896.94
2022-09-14T11:47:28.979Z,98891.59
2022-09-14T11:48:43.168Z,98892.28
2022-09-14T11:50:03.911Z,98886.03
2022-09-14T11:51:20.578Z,98883.59
2022-09-14T11:52:30.520Z,98885.16
2022-09-14T11:53:35.941Z,98890.44
2022-09-14T11:54:46.037Z,98879.97
2022-09-14T11:55:51.008Z,98884.31
2022-09-14T11:56:58.470Z,98879.19
2022-09-14T11:58:04.163Z,98884.16
2022-09-14T11:59:08.042Z,98884.75
2022-09-14T12:00:43.385Z,98880.91
2022-09-14T12:01:45.467Z,98879.06
2022-09-14T12:03:00.913Z,98879.38
2022-09-14T12:04:18.741Z,98878.50
2022-09-14T12:05:20.770Z,98886.22
2022-09-14T12:06:34.573Z,98885.34
2022-09-14T12:07:42.732Z,98878.22
2022-09-14T12:08:44.961Z,98890.47
2022-09-14T12:09:47.556Z,98886.31
2022-09-14T12:10:59.716Z,98889.63
2022-09-14T12:12:03.623Z,98882.41
2022-09-14T12:13:08.679Z,98881.63
2022-09-14T12:14:29.816Z,98886.56
2022-09-14T12:15:41.360Z,98884.44
2022-09-14T12:17:17.232Z,98886.50
2022-09-14T12:18:28.244Z,98880.94
2022-09-14T12:19:32.512Z,98881.47
2022-09-14T12:20:39.371Z,98884.97
2022-09-14T12:21:41.911Z,98881.63
2022-09-14T12:22:48.169Z,98877.13
2022-09-14T12:23:58.043Z,98872.16
2022-09-14T12:25:16.490Z,98875.78
2022-09-14T12:26:18.984Z,98870.31
2022-09-14T12:27:31.304Z,98868.34
2022-09-14T12:28:39.134Z,98867.25
2022-09-14T12:29:41.298Z,98870.63
2022-09-14T12:30:45.550Z,98873.28
2022-09-14T12:31:58.979Z,98857.94
2022-09-14T12:33:02.198Z,98860.81
2022-09-14T12:34:06.212Z,98865.19
2022-09-14T12:35:32.959Z,98859.81
2022-09-14T12:36:39.767Z,98861.59
2022-09-14T12:37:42.310Z,98861.72
2022-09-14T12:38:50.166Z,98859.50
2022-09-14T12:40:33.907Z,98858.81
2022-09-14T12:41:36.179Z,98860.13
2022-09-14T12:42:40.075Z,98855.00
2022-09-14T12:43:49.432Z,98860.06
2022-09-14T12:44:52.749Z,98859.03
2022-09-14T12:46:13.638Z,98853.88
2022-09-14T12:47:24.758Z,98854.44
2022-09-14T12:48:48.332Z,98852.56
2022-09-14T12:49:53.412Z,98864.22
2022-09-14T12:50:55.625Z,98860.50
2022-09-14T12:52:03.652Z,98860.06
2022-09-14T12:53:28.659Z,98862.59
2022-09-14T12:54:43.278Z,98856.84
2022-09-14T12:55:57.422Z,98861.41
2022-09-14T12:57:14.460Z,98857.88
2022-09-14T12:58:38.464Z,98856.66
2022-09-14T13:00:14.676Z,98858.81
2022-09-14T13:01:55.016Z,98858.97
2022-09-14T13:03:18.200Z,98848.69
2022-09-14T13:04:32.590Z,98856.88
2022-09-14T13:05:35.037Z,98851.00
2022-09-14T13:06:45.279Z,98856.84
2022-09-14T13:07:47.489Z,98857.19
2022-09-14T13:08:56.864Z,98849.69
2022-09-14T13:10:00.820Z,98840.72
2022-09-14T13:11:02.962Z,98844.41
2022-09-14T13:12:11.024Z,98845.50
2022-09-14T13:13:23.300Z,98847.41
2022-09-14T13:14:30.862Z,98854.06
2022-09-14T13:15:37.517Z,98847.97
2022-09-14T13:16:44.985Z,98850.41
2022-09-14T13:18:18.551Z,98843.59
2022-09-14T13:19:29.726Z,98843.41
2022-09-14T13:20:35.554Z,98846.75
2022-09-14T13:21:47.547Z,98853.97
2022-09-14T13:22:49.824Z,98850.41
2022-09-14T13:23:52.343Z,98845.69
2022-09-14T13:24:54.663Z,98841.81
2022-09-14T13:25:57.480Z,98841.28
2022-09-14T13:27:02.917Z,98843.63
2022-09-14T13:28:13.157Z,98845.34
2022-09-14T13:29:16.227Z,98850.03
2022-09-14T13:30:21.966Z,98848.41
2022-09-14T13:31:32.101Z,98856.31
2022-09-14T13:32:39.434Z,98852.22
2022-09-14T13:33:48.989Z,98854.91
2022-09-14T13:34:52.812Z,98851.63
2022-09-14T13:36:01.470Z,98856.16
2022-09-14T13:37:04.958Z,98851.81
2022-09-14T13:38:15.447Z,98847.25
2022-09-14T13:39:25.046Z,98849.34
2022-09-14T13:40:30.330Z,98849.25